Aérodrome :
LOGIN :

S'inscrire | Disclaimer

   EN    FR    IT 

 










Légende :    VFR   VFR Marginal   IFR   IFR Intensif   IFR Très Intensif
Visi : 
Plafond : 
>= 8 km
>= 3000ft
5 à 8 km
1000 à 3000 ft
1500m à 5 km
500 à 1000 ft
800 à 1500m
200 à 500 ft
< 800m
< 200 ft
Symboles :   Orages  Brouillard  Fortes neiges  Fortes précipitations  Vent > 20 kt
SIGMETs :   Divers  Orages  Givrage  Turbulence  Onde Orograph.  Cendres Volcan.






- Altitude de l'aérodrome : 284 ft


EGUW - RAF Wattisham

DERNIER METAR :
  • 202350Z AUTO 25011KT 9999 FEW220/// 02/M01 Q1019

METARs EXPIRÉS :
  • 202323Z 26014KT CAVOK 03/M00 Q1019 NOSIG RMK BLU BLU
  • 202250Z 26014KT CAVOK 03/M00 Q1018 NOSIG RMK BLU BLU
  • 202226Z 27013KT CAVOK 03/M01 Q1018 NOSIG RMK BLU BLU

TAF TAF EGUW
Valide du 20 à 21h jusqu'au 21 à 02h UTC


201932Z 2021/2102 22014KT 9999 FEW030
TEMPO 2021/2102 22015G25KT



MET'MAP, la Météo Aéronautique d'un coup d'oeil ! - Copyright ORBIFLY Décembre 2007 - Disclaimer

ORBIFLY MET'MAP TEAM :

Programmation & Développement : Alexandra Zaïnal
Sur une idée originale de : Baudouin d'Aumeries
Assistance à la programmation : Marc-Olivier Méhu
Soutien technique & logistique : Manuel Goepfert

Contact : metmap@orbifly.com




SOURCES & CREDITS :

   NOAA